Latest Weather Observations for Horsley Park

IDN60801

Issued at 6:05 pm EST Sunday 20 April 2014 (issued every 30 minutes, with the page automatically refreshed every 10 minutes)

About weather observations | Map of weather stations | Latest weather observations for NSW | Other Formats
Station Details ID: 067119 Name: HORSLEY PARK EQUESTRIAN CENTRE AWS Lat: -33.85 Lon: 150.86 Height: 100.0 m
Data from the previous 72 hours. | See also: Recent months at Horsley Park
Date/Time
EST
Temp
°C
App
Temp
°C
Dew
Point
Rel
Hum
%
Delta-T
°C
Wind Press
QNH
hPa
Press
MSL
hPa
Rain
since 9 am
mm
Dir
 
Spd
km/h
Gust
km/h
Spd
kts
Gust
kts
20/06:00pm 16.5 16.8 10.8 69 3.1 ESE 0 6 0 3 - - 0.0
20/05:30pm 18.8 19.0 10.6 59 4.4 ENE 0 0 0 0 - - 0.0
20/05:00pm 21.2 21.2 9.8 48 6.2 CALM 0 0 0 0 - - 0.0
20/04:30pm 21.9 20.8 10.1 47 6.4 ENE 6 7 3 4 - - 0.0
20/04:00pm 22.6 21.9 10.1 45 6.8 ENE 4 7 2 4 - - 0.0
20/03:30pm 22.7 21.8 10.8 47 6.6 ENE 6 11 3 6 - - 0.0
20/03:00pm 22.8 22.2 10.3 45 6.9 N 4 9 2 5 - - 0.0
20/02:30pm 22.5 21.1 10.9 48 6.4 N 9 15 5 8 - - 0.0
20/02:00pm 22.3 21.6 11.4 50 6.1 NNE 6 11 3 6 - - 0.0
20/01:30pm 22.3 21.0 11.1 49 6.2 N 9 17 5 9 - - 0.0
20/01:00pm 21.5 19.1 10.0 48 6.3 NNE 13 20 7 11 - - 0.0
20/12:30pm 21.4 19.8 11.7 54 5.4 NNE 11 17 6 9 - - 0.0
20/12:00pm 20.9 19.1 11.0 53 5.5 N 11 17 6 9 - - 0.0
20/11:30am 20.8 19.8 10.9 53 5.4 NW 7 15 4 8 - - 0.0
20/11:00am 20.4 20.3 10.8 54 5.3 NNW 2 6 1 3 - - 0.0
20/10:30am 18.9 18.1 9.7 55 4.9 WNW 4 7 2 4 - - 0.0
20/10:00am 18.3 18.2 9.6 57 4.6 CALM 0 4 0 2 - - 0.0
20/09:30am 17.0 16.3 9.9 63 3.8 WNW 4 6 2 3 - - 0.0
20/09:00am 15.7 14.8 9.4 66 3.3 W 4 7 2 4 - - 0.0
20/08:30am 15.0 14.3 10.0 72 2.6 WSW 4 7 2 4 - - 0.0
20/08:00am 13.3 12.4 9.2 76 2.1 WSW 4 9 2 5 - - 0.0
20/07:30am 11.9 11.2 8.6 80 1.6 WSW 2 6 1 3 - - 0.0
20/07:00am 10.7 10.3 8.1 84 1.3 CALM 0 0 0 0 - - 0.0
20/06:30am 9.9 8.6 7.7 86 1.1 WSW 4 6 2 3 - - 0.0
20/06:00am 9.7 8.3 7.3 85 1.1 W 4 6 2 3 - - 0.0
20/05:30am 9.2 8.6 7.5 89 0.8 CALM 0 0 0 0 - - 0.0
20/05:00am 9.8 9.2 7.2 84 1.2 CALM 0 0 0 0 - - 0.0
20/04:30am 10.2 9.6 7.3 82 1.4 CALM 0 0 0 0 - - 0.0
20/04:00am 10.6 9.9 6.9 78 1.8 CALM 0 0 0 0 - - 0.0
20/03:30am 11.5 9.8 7.4 76 2.0 WSW 6 9 3 5 - - 0.0
20/03:00am 12.1 10.8 7.6 74 2.2 WNW 4 6 2 3 - - 0.0
20/02:30am 12.3 11.4 7.6 73 2.3 N 2 4 1 2 - - 0.0
20/02:00am 13.6 11.6 6.9 64 3.3 SW 7 9 4 5 - - 0.0
20/01:30am 13.3 11.3 7.1 66 3.0 SW 7 11 4 6 - - 0.0
20/01:00am 13.3 11.4 6.9 65 3.1 SW 6 7 3 4 - - 0.0
20/12:30am 13.9 11.1 7.0 63 3.4 SW 11 15 6 8 - - 0.0
20/12:00am 14.2 11.5 7.3 63 3.4 SW 11 13 6 7 - - 0.0
 
Date/Time
EST
Temp
°C
App
Temp
°C
Dew
Point
Rel
Hum
%
Delta-T
°C
Wind Press
QNH
hPa
Press
MSL
hPa
Rain
since 9 am
mm
Dir
 
Spd
km/h
Gust
km/h
Spd
kts
Gust
kts
19/11:30pm 13.9 11.3 7.9 67 3.0 SW 11 13 6 7 - - 0.0
19/11:00pm 14.0 12.2 8.0 67 3.0 WSW 7 9 4 5 - - 0.0
19/10:30pm 14.2 12.5 8.2 67 3.0 WSW 7 11 4 6 - - 0.0
19/10:00pm 14.4 12.9 8.6 68 2.9 WSW 6 9 3 5 - - 0.0
19/09:30pm 14.0 12.8 8.2 68 2.9 W 4 7 2 4 - - 0.0
19/09:00pm 14.1 12.6 8.3 68 2.9 WSW 6 9 3 5 - - 0.0
19/08:30pm 12.7 11.6 8.6 76 2.1 W 4 6 2 3 - - 0.0
19/08:00pm 13.0 12.2 8.1 72 2.4 WSW 2 4 1 2 - - 0.0
19/07:30pm 13.4 12.4 8.7 73 2.4 SW 4 6 2 3 - - 0.0
19/07:00pm 14.1 13.1 8.7 70 2.7 SW 4 4 2 2 - - 0.0
19/06:30pm 15.1 13.7 7.4 60 3.8 SSE 4 6 2 3 - - 0.0
19/06:00pm 15.9 14.2 7.4 57 4.2 SSE 6 9 3 5 - - 0.0
19/05:30pm 16.1 13.4 7.3 56 4.4 SSE 11 20 6 11 - - 0.0
19/05:00pm 16.9 13.5 7.5 54 4.7 SSE 15 26 8 14 - - 0.0
19/04:30pm 17.8 14.0 7.5 51 5.2 SE 17 28 9 15 - - 0.0
19/04:00pm 18.4 14.7 7.8 50 5.4 SE 17 28 9 15 - - 0.0
19/03:30pm 19.0 15.3 8.1 49 5.6 SE 17 32 9 17 - - 0.0
19/03:00pm 19.2 15.2 8.2 49 5.7 SE 19 30 10 16 - - 0.0
19/02:30pm 19.9 16.3 8.3 47 6.1 ESE 17 26 9 14 - - 0.0
19/02:00pm 20.2 16.4 9.2 49 5.8 SE 19 26 10 14 - - 0.0
19/01:30pm 21.3 19.2 9.9 48 6.2 ESE 11 19 6 10 - - 0.0
19/01:00pm 20.7 18.8 9.0 47 6.2 SE 9 15 5 8 - - 0.0
19/12:30pm 21.9 21.5 9.8 46 6.6 WSW 2 6 1 3 - - 0.0
19/12:00pm 20.5 19.7 9.7 50 5.8 S 4 7 2 4 - - 0.0
19/11:30am 20.5 19.3 9.4 49 5.9 E 6 13 3 7 - - 0.0
19/11:00am 20.7 20.0 9.9 50 5.8 S 4 9 2 5 - - 0.0
19/10:30am 20.0 19.4 10.4 54 5.2 E 4 7 2 4 - - 0.0
19/10:00am 19.1 17.9 10.4 57 4.7 SSW 7 13 4 7 - - 0.0
19/09:30am 18.6 17.6 10.4 59 4.4 S 6 11 3 6 - - 0.0
19/09:00am 17.7 16.4 10.1 61 4.1 SSE 7 11 4 6 - - 0.0
19/08:30am 17.2 16.0 10.3 64 3.7 SE 7 11 4 6 - - 0.0
19/08:00am 15.9 15.8 10.7 71 2.8 NE 2 4 1 2 - - 0.0
19/07:30am 15.0 14.1 10.6 75 2.3 SSW 6 7 3 4 - - 0.0
19/07:00am 13.6 12.4 10.4 81 1.7 SSW 7 9 4 5 - - 0.0
19/06:30am 12.7 11.4 9.9 83 1.4 S 7 11 4 6 - - 0.0
19/06:00am 13.7 12.4 10.1 79 1.9 S 7 13 4 7 - - 0.0
19/05:30am 13.9 12.8 10.5 80 1.8 S 7 11 4 6 - - 0.0
19/05:00am 13.9 12.8 10.1 78 2.0 S 6 9 3 5 - - 0.0
19/04:30am 15.5 14.5 11.1 75 2.4 S 7 15 4 8 - - 0.0
19/04:00am 15.6 14.2 11.0 74 2.5 S 9 11 5 6 - - 0.0
19/03:30am 15.6 14.2 10.8 73 2.6 S 9 13 5 7 - - 0.0
19/03:00am 16.6 15.1 10.7 68 3.2 S 9 13 5 7 - - 0.0
19/02:30am 16.6 14.4 9.3 62 3.8 S 11 15 6 8 - - 0.0
19/02:00am 15.1 13.6 9.0 67 3.1 S 7 9 4 5 - - 0.0
19/01:30am 14.6 12.8 9.4 71 2.7 S 9 15 5 8 - - 0.0
19/01:00am 13.7 12.6 8.3 70 2.7 SW 4 6 2 3 - - 0.0
19/12:30am 14.0 13.6 8.2 68 2.9 CALM 0 4 0 2 - - 0.0
19/12:00am 15.3 13.9 8.8 65 3.3 SW 6 7 3 4 - - 0.0
 
Date/Time
EST
Temp
°C
App
Temp
°C
Dew
Point
Rel
Hum
%
Delta-T
°C
Wind Press
QNH
hPa
Press
MSL
hPa
Rain
since 9 am
mm
Dir
 
Spd
km/h
Gust
km/h
Spd
kts
Gust
kts
18/11:30pm 13.9 12.8 8.5 70 2.7 WNW 4 7 2 4 - - 0.0
18/11:00pm 15.0 13.9 8.3 64 3.4 NW 4 6 2 3 - - 0.0
18/10:30pm 15.7 14.3 8.9 64 3.5 WNW 6 9 3 5 - - 0.0
18/10:00pm 16.0 14.6 9.0 63 3.6 NW 6 7 3 4 - - 0.0
18/09:30pm 16.8 15.3 9.0 60 4.0 NW 7 11 4 6 - - 0.0
18/09:00pm 16.4 15.7 8.6 60 4.0 W 2 7 1 4 - - 0.0
18/08:30pm 17.5 16.3 8.1 54 4.8 WNW 4 7 2 4 - - 0.0
18/08:00pm 19.3 17.8 8.3 49 5.7 W 6 7 3 4 - - 0.0
18/07:30pm 19.8 18.3 9.1 50 5.7 W 7 11 4 6 - - 0.0
18/07:00pm 17.0 16.8 8.9 59 4.2 CALM 0 0 0 0 - - 0.0
18/06:30pm 19.0 17.9 8.4 50 5.5 W 4 6 2 3 - - 0.0
18/06:00pm 20.1 18.5 8.1 46 6.2 WSW 6 7 3 4 - - 0.0
18/05:30pm 21.0 18.8 8.0 43 6.8 WSW 9 15 5 8 - - 0.0
18/05:00pm 22.2 19.6 7.6 39 7.6 SW 11 19 6 10 - - 0.0
18/04:30pm 23.4 20.9 8.3 38 8.0 SW 11 20 6 11 - - 0.0
18/04:00pm 23.7 20.3 7.8 36 8.4 SW 15 24 8 13 - - 0.0
18/03:30pm 24.7 21.4 8.2 35 8.8 WSW 15 24 8 13 - - 0.0
18/03:00pm 24.7 21.4 8.2 35 8.8 WSW 15 22 8 12 - - 0.0
18/02:30pm 24.6 22.2 8.5 36 8.7 WSW 11 24 6 13 - - 0.0
18/02:00pm 24.3 22.3 8.7 37 8.4 W 9 19 5 10 - - 0.0
18/01:30pm 23.9 23.0 9.1 39 8.0 W 4 11 2 6 - - 0.0
18/01:00pm 23.0 21.1 9.0 41 7.5 W 9 17 5 9 - - 0.0
18/12:30pm 22.8 20.9 9.2 42 7.3 NNW 9 15 5 8 - - 0.0
18/12:00pm 22.4 21.1 9.9 45 6.8 NW 7 19 4 10 - - 0.0
18/11:30am 21.8 20.4 9.7 46 6.6 WNW 7 13 4 7 - - 0.0
18/11:00am 21.3 20.6 9.9 48 6.2 W 4 9 2 5 - - 0.0
18/10:30am 19.7 18.7 10.4 55 5.0 WSW 6 9 3 5 - - 0.0
18/10:00am 18.5 17.9 10.3 59 4.4 WSW 4 7 2 4 - - 0.0
18/09:30am 17.4 17.0 11.0 66 3.5 NW 4 7 2 4 - - 0.0
18/09:00am 16.4 15.6 11.1 71 2.9 WNW 6 9 3 5 - - 0.0
18/08:30am 15.3 15.3 11.1 76 2.3 WNW 2 4 1 2 - - 0.0
18/08:00am 13.8 12.9 10.6 81 1.7 WNW 6 7 3 4 - - 0.0
18/07:30am 12.6 11.9 10.1 85 1.3 NW 4 6 2 3 - - 0.0
18/07:00am 11.9 11.6 10.0 88 1.0 W 2 4 1 2 - - 0.0
18/06:30am 11.4 10.6 9.7 89 0.9 W 4 6 2 3 - - 0.0
18/06:00am 10.8 9.8 8.9 88 0.9 W 4 6 2 3 - - 0.0
18/05:30am 11.4 10.4 9.0 85 1.2 WSW 4 7 2 4 - - 0.0
18/05:00am 12.4 10.6 9.6 83 1.4 WSW 9 15 5 8 - - 0.0
18/04:30am 12.7 11.0 9.9 83 1.4 SW 9 13 5 7 - - 0.0
18/04:00am 12.8 11.4 9.6 81 1.6 WSW 7 11 4 6 - - 0.0
18/03:30am 13.1 11.4 9.9 81 1.7 SW 9 13 5 7 - - 0.0
18/03:00am 13.1 11.4 9.9 81 1.7 WSW 9 11 5 6 - - 0.0
18/02:30am 13.2 11.2 10.0 81 1.7 WSW 11 15 6 8 - - 0.0
18/02:00am 13.2 11.2 10.0 81 1.7 WSW 11 13 6 7 - - 0.0
18/01:30am 13.4 12.1 9.8 79 1.9 WSW 7 13 4 7 - - 0.0
18/01:00am 13.8 12.5 10.0 78 2.0 WSW 7 13 4 7 - - 0.0
18/12:30am 13.9 12.8 9.9 77 2.1 WSW 6 9 3 5 - - 0.0
18/12:00am 14.2 13.0 10.4 78 2.0 WSW 7 11 4 6 - - 0.0
 
Date/Time
EST
Temp
°C
App
Temp
°C
Dew
Point
Rel
Hum
%
Delta-T
°C
Wind Press
QNH
hPa
Press
MSL
hPa
Rain
since 9 am
mm
Dir
 
Spd
km/h
Gust
km/h
Spd
kts
Gust
kts
17/11:30pm 14.0 12.9 10.6 80 1.8 WSW 7 11 4 6 - - 0.0
17/11:00pm 14.3 13.3 10.9 80 1.8 WSW 7 11 4 6 - - 0.0
17/10:30pm 14.6 13.7 11.4 81 1.7 WSW 7 11 4 6 - - 0.0
17/10:00pm 14.9 14.4 11.9 82 1.6 W 6 9 3 5 - - 0.0
17/09:30pm 15.1 15.0 12.1 82 1.6 W 4 7 2 4 - - 0.0
17/09:00pm 14.9 14.8 12.0 83 1.6 W 4 6 2 3 - - 0.0
17/08:30pm 14.2 14.0 11.7 85 1.3 W 4 6 2 3 - - 0.0
17/08:00pm 15.4 15.4 12.5 83 1.6 WNW 4 6 2 3 - - 0.0
17/07:30pm 16.3 16.3 12.3 77 2.2 S 4 6 2 3 - - 0.0
17/07:00pm 17.1 16.6 12.2 73 2.7 S 6 9 3 5 - - 0.0
17/06:30pm 17.5 16.9 12.2 71 2.9 SSE 7 15 4 8 - - 0.0

Other Formats:

Comma delimited format used in spreadsheet applications
http://www.bom.gov.au/fwo/IDN60801/IDN60801.94760.axf

JavaScript Object Notation format (JSON) in row-major order
http://www.bom.gov.au/fwo/IDN60801/IDN60801.94760.json